sensor_id;sensor_type;location;lat;lon;timestamp;P1;durP1;ratioP1;P2;durP2;ratioP2
85330;SDS011;75738;44.496;11.344;2024-01-30T00:01:25;53.45;;;28.73;;
85330;SDS011;75738;44.496;11.344;2024-01-30T00:03:52;56.58;;;29.77;;
85330;SDS011;75738;44.496;11.344;2024-01-30T00:06:20;57.78;;;28.77;;
85330;SDS011;75738;44.496;11.344;2024-01-30T00:08:48;57.27;;;28.47;;
85330;SDS011;75738;44.496;11.344;2024-01-30T00:11:16;60.45;;;28.83;;
85330;SDS011;75738;44.496;11.344;2024-01-30T00:13:43;55.90;;;28.60;;
85330;SDS011;75738;44.496;11.344;2024-01-30T00:16:26;60.65;;;28.42;;
85330;SDS011;75738;44.496;11.344;2024-01-30T00:18:51;60.60;;;29.15;;
85330;SDS011;75738;44.496;11.344;2024-01-30T00:21:19;53.85;;;28.05;;
85330;SDS011;75738;44.496;11.344;2024-01-30T00:23:47;58.50;;;28.75;;
85330;SDS011;75738;44.496;11.344;2024-01-30T00:26:15;59.67;;;29.20;;
85330;SDS011;75738;44.496;11.344;2024-01-30T00:28:43;58.85;;;28.45;;
85330;SDS011;75738;44.496;11.344;2024-01-30T00:31:10;55.92;;;28.10;;
85330;SDS011;75738;44.496;11.344;2024-01-30T00:33:38;56.10;;;28.15;;
85330;SDS011;75738;44.496;11.344;2024-01-30T00:36:06;57.78;;;29.20;;
85330;SDS011;75738;44.496;11.344;2024-01-30T00:38:34;59.63;;;28.92;;
85330;SDS011;75738;44.496;11.344;2024-01-30T00:41:01;58.70;;;29.85;;
85330;SDS011;75738;44.496;11.344;2024-01-30T00:43:30;57.73;;;28.42;;
85330;SDS011;75738;44.496;11.344;2024-01-30T00:45:57;60.45;;;30.37;;
85330;SDS011;75738;44.496;11.344;2024-01-30T00:48:25;56.28;;;28.05;;
85330;SDS011;75738;44.496;11.344;2024-01-30T00:50:52;52.43;;;27.45;;
85330;SDS011;75738;44.496;11.344;2024-01-30T00:53:20;57.03;;;28.20;;
85330;SDS011;75738;44.496;11.344;2024-01-30T00:55:47;54.67;;;28.10;;
85330;SDS011;75738;44.496;11.344;2024-01-30T00:58:15;57.25;;;28.62;;
85330;SDS011;75738;44.496;11.344;2024-01-30T01:00:44;56.77;;;28.02;;
85330;SDS011;75738;44.496;11.344;2024-01-30T01:03:11;60.45;;;28.62;;
85330;SDS011;75738;44.496;11.344;2024-01-30T01:05:39;56.48;;;27.80;;
85330;SDS011;75738;44.496;11.344;2024-01-30T01:08:06;54.25;;;28.60;;
85330;SDS011;75738;44.496;11.344;2024-01-30T01:10:34;54.38;;;28.47;;
85330;SDS011;75738;44.496;11.344;2024-01-30T01:13:05;53.40;;;27.80;;
85330;SDS011;75738;44.496;11.344;2024-01-30T01:15:32;56.60;;;28.73;;
85330;SDS011;75738;44.496;11.344;2024-01-30T01:18:00;54.80;;;27.87;;
85330;SDS011;75738;44.496;11.344;2024-01-30T01:20:28;55.43;;;27.55;;
85330;SDS011;75738;44.496;11.344;2024-01-30T01:22:55;54.55;;;28.70;;
85330;SDS011;75738;44.496;11.344;2024-01-30T01:25:22;53.83;;;28.10;;
85330;SDS011;75738;44.496;11.344;2024-01-30T01:27:50;54.67;;;28.27;;
85330;SDS011;75738;44.496;11.344;2024-01-30T01:30:18;53.58;;;27.37;;
85330;SDS011;75738;44.496;11.344;2024-01-30T01:32:48;52.53;;;27.52;;
85330;SDS011;75738;44.496;11.344;2024-01-30T01:35:22;59.75;;;28.42;;
85330;SDS011;75738;44.496;11.344;2024-01-30T01:37:53;59.03;;;28.95;;
85330;SDS011;75738;44.496;11.344;2024-01-30T01:40:26;52.90;;;27.20;;
85330;SDS011;75738;44.496;11.344;2024-01-30T01:42:50;55.05;;;27.48;;
85330;SDS011;75738;44.496;11.344;2024-01-30T01:45:19;51.50;;;25.48;;
85330;SDS011;75738;44.496;11.344;2024-01-30T01:47:47;52.25;;;26.57;;
85330;SDS011;75738;44.496;11.344;2024-01-30T01:50:16;50.35;;;27.22;;
85330;SDS011;75738;44.496;11.344;2024-01-30T01:52:47;51.08;;;25.92;;
85330;SDS011;75738;44.496;11.344;2024-01-30T01:55:15;51.42;;;27.37;;
85330;SDS011;75738;44.496;11.344;2024-01-30T01:57:44;51.20;;;26.05;;
85330;SDS011;75738;44.496;11.344;2024-01-30T02:00:11;53.87;;;26.73;;
85330;SDS011;75738;44.496;11.344;2024-01-30T02:02:40;49.67;;;26.00;;
85330;SDS011;75738;44.496;11.344;2024-01-30T02:05:10;47.05;;;25.48;;
85330;SDS011;75738;44.496;11.344;2024-01-30T02:07:37;44.95;;;24.75;;
85330;SDS011;75738;44.496;11.344;2024-01-30T02:10:05;46.98;;;24.70;;
85330;SDS011;75738;44.496;11.344;2024-01-30T02:12:36;48.38;;;23.90;;
85330;SDS011;75738;44.496;11.344;2024-01-30T02:15:04;44.75;;;24.15;;
85330;SDS011;75738;44.496;11.344;2024-01-30T02:17:33;44.95;;;24.43;;
85330;SDS011;75738;44.496;11.344;2024-01-30T02:20:01;45.58;;;23.87;;
85330;SDS011;75738;44.496;11.344;2024-01-30T02:22:31;43.58;;;23.20;;
85330;SDS011;75738;44.496;11.344;2024-01-30T02:25:01;43.68;;;22.75;;
85330;SDS011;75738;44.496;11.344;2024-01-30T02:27:28;43.92;;;23.32;;
85330;SDS011;75738;44.496;11.344;2024-01-30T02:29:55;46.73;;;23.38;;
85330;SDS011;75738;44.496;11.344;2024-01-30T02:32:23;45.05;;;23.27;;
85330;SDS011;75738;44.496;11.344;2024-01-30T02:34:50;44.33;;;23.70;;
85330;SDS011;75738;44.496;11.344;2024-01-30T02:37:18;46.85;;;22.85;;
85330;SDS011;75738;44.496;11.344;2024-01-30T02:39:45;43.87;;;22.85;;
85330;SDS011;75738;44.496;11.344;2024-01-30T02:42:12;42.13;;;22.35;;
85330;SDS011;75738;44.496;11.344;2024-01-30T02:44:40;41.95;;;22.65;;
85330;SDS011;75738;44.496;11.344;2024-01-30T02:47:07;41.30;;;21.85;;
85330;SDS011;75738;44.496;11.344;2024-01-30T02:49:35;44.13;;;23.10;;
85330;SDS011;75738;44.496;11.344;2024-01-30T02:52:02;40.30;;;21.42;;
85330;SDS011;75738;44.496;11.344;2024-01-30T02:54:30;41.80;;;21.50;;
85330;SDS011;75738;44.496;11.344;2024-01-30T02:56:57;41.48;;;22.58;;
85330;SDS011;75738;44.496;11.344;2024-01-30T02:59:25;41.02;;;22.22;;
85330;SDS011;75738;44.496;11.344;2024-01-30T03:01:52;41.92;;;22.05;;
85330;SDS011;75738;44.496;11.344;2024-01-30T03:04:19;41.85;;;21.52;;
85330;SDS011;75738;44.496;11.344;2024-01-30T03:06:47;40.28;;;20.72;;
85330;SDS011;75738;44.496;11.344;2024-01-30T03:09:16;42.67;;;22.22;;
85330;SDS011;75738;44.496;11.344;2024-01-30T03:11:43;40.98;;;21.70;;
85330;SDS011;75738;44.496;11.344;2024-01-30T03:14:11;38.40;;;20.77;;
85330;SDS011;75738;44.496;11.344;2024-01-30T03:16:38;43.25;;;21.95;;
85330;SDS011;75738;44.496;11.344;2024-01-30T03:19:06;40.38;;;21.12;;
85330;SDS011;75738;44.496;11.344;2024-01-30T03:21:35;42.33;;;21.82;;
85330;SDS011;75738;44.496;11.344;2024-01-30T03:24:03;40.85;;;19.87;;
85330;SDS011;75738;44.496;11.344;2024-01-30T03:26:30;39.13;;;21.15;;
85330;SDS011;75738;44.496;11.344;2024-01-30T03:28:58;40.20;;;21.17;;
85330;SDS011;75738;44.496;11.344;2024-01-30T03:31:25;41.80;;;21.93;;
85330;SDS011;75738;44.496;11.344;2024-01-30T03:33:52;42.83;;;21.95;;
85330;SDS011;75738;44.496;11.344;2024-01-30T03:36:20;39.25;;;20.92;;
85330;SDS011;75738;44.496;11.344;2024-01-30T03:38:47;41.42;;;21.55;;
85330;SDS011;75738;44.496;11.344;2024-01-30T03:41:15;40.65;;;21.00;;
85330;SDS011;75738;44.496;11.344;2024-01-30T03:43:42;38.88;;;20.32;;
85330;SDS011;75738;44.496;11.344;2024-01-30T03:46:11;41.15;;;21.60;;
85330;SDS011;75738;44.496;11.344;2024-01-30T03:48:39;40.33;;;21.00;;
85330;SDS011;75738;44.496;11.344;2024-01-30T03:51:06;39.83;;;20.88;;
85330;SDS011;75738;44.496;11.344;2024-01-30T03:53:33;37.28;;;20.30;;
85330;SDS011;75738;44.496;11.344;2024-01-30T03:56:01;36.98;;;20.10;;
85330;SDS011;75738;44.496;11.344;2024-01-30T03:58:28;36.98;;;20.65;;
85330;SDS011;75738;44.496;11.344;2024-01-30T04:00:56;36.13;;;19.20;;
85330;SDS011;75738;44.496;11.344;2024-01-30T04:03:23;36.98;;;19.98;;
85330;SDS011;75738;44.496;11.344;2024-01-30T04:05:54;35.68;;;19.17;;
85330;SDS011;75738;44.496;11.344;2024-01-30T04:08:21;38.40;;;20.17;;
85330;SDS011;75738;44.496;11.344;2024-01-30T04:10:48;35.73;;;19.25;;
85330;SDS011;75738;44.496;11.344;2024-01-30T04:13:16;37.63;;;20.32;;
85330;SDS011;75738;44.496;11.344;2024-01-30T04:15:43;36.17;;;19.98;;
85330;SDS011;75738;44.496;11.344;2024-01-30T04:18:11;38.88;;;20.50;;
85330;SDS011;75738;44.496;11.344;2024-01-30T04:20:38;37.53;;;19.73;;
85330;SDS011;75738;44.496;11.344;2024-01-30T04:23:06;37.75;;;19.73;;
85330;SDS011;75738;44.496;11.344;2024-01-30T04:25:34;36.05;;;20.20;;
85330;SDS011;75738;44.496;11.344;2024-01-30T04:28:01;37.25;;;20.60;;
85330;SDS011;75738;44.496;11.344;2024-01-30T04:30:28;39.33;;;20.72;;
85330;SDS011;75738;44.496;11.344;2024-01-30T04:32:56;38.75;;;20.00;;
85330;SDS011;75738;44.496;11.344;2024-01-30T04:35:23;36.90;;;20.52;;
85330;SDS011;75738;44.496;11.344;2024-01-30T04:37:54;36.80;;;19.70;;
85330;SDS011;75738;44.496;11.344;2024-01-30T04:40:21;38.08;;;20.43;;
85330;SDS011;75738;44.496;11.344;2024-01-30T04:42:49;38.35;;;19.98;;
85330;SDS011;75738;44.496;11.344;2024-01-30T04:45:16;38.30;;;19.80;;
85330;SDS011;75738;44.496;11.344;2024-01-30T04:47:44;38.60;;;20.37;;
85330;SDS011;75738;44.496;11.344;2024-01-30T04:50:11;35.15;;;19.35;;
85330;SDS011;75738;44.496;11.344;2024-01-30T04:52:39;38.58;;;20.00;;
85330;SDS011;75738;44.496;11.344;2024-01-30T04:55:07;38.23;;;19.67;;
85330;SDS011;75738;44.496;11.344;2024-01-30T04:57:34;37.42;;;19.98;;
85330;SDS011;75738;44.496;11.344;2024-01-30T05:00:02;36.90;;;19.57;;
85330;SDS011;75738;44.496;11.344;2024-01-30T05:02:30;35.00;;;18.87;;
85330;SDS011;75738;44.496;11.344;2024-01-30T05:04:58;40.20;;;21.05;;
85330;SDS011;75738;44.496;11.344;2024-01-30T05:07:25;38.80;;;20.92;;
85330;SDS011;75738;44.496;11.344;2024-01-30T05:09:53;36.13;;;19.57;;
85330;SDS011;75738;44.496;11.344;2024-01-30T05:12:20;39.53;;;21.50;;
85330;SDS011;75738;44.496;11.344;2024-01-30T05:14:48;39.25;;;20.88;;
85330;SDS011;75738;44.496;11.344;2024-01-30T05:17:15;37.55;;;19.87;;
85330;SDS011;75738;44.496;11.344;2024-01-30T05:19:43;37.75;;;21.05;;
85330;SDS011;75738;44.496;11.344;2024-01-30T05:22:11;39.00;;;20.27;;
85330;SDS011;75738;44.496;11.344;2024-01-30T05:24:43;35.88;;;19.32;;
85330;SDS011;75738;44.496;11.344;2024-01-30T05:27:11;38.88;;;20.85;;
85330;SDS011;75738;44.496;11.344;2024-01-30T05:29:39;39.88;;;20.48;;
85330;SDS011;75738;44.496;11.344;2024-01-30T05:32:07;43.23;;;21.87;;
85330;SDS011;75738;44.496;11.344;2024-01-30T05:34:35;38.08;;;20.82;;
85330;SDS011;75738;44.496;11.344;2024-01-30T05:37:03;38.95;;;20.48;;
85330;SDS011;75738;44.496;11.344;2024-01-30T05:39:31;38.63;;;20.68;;
85330;SDS011;75738;44.496;11.344;2024-01-30T05:41:58;36.95;;;20.23;;
85330;SDS011;75738;44.496;11.344;2024-01-30T05:44:26;39.35;;;21.33;;
85330;SDS011;75738;44.496;11.344;2024-01-30T05:46:53;38.78;;;20.82;;
85330;SDS011;75738;44.496;11.344;2024-01-30T05:49:20;38.75;;;20.88;;
85330;SDS011;75738;44.496;11.344;2024-01-30T05:51:48;40.55;;;22.17;;
85330;SDS011;75738;44.496;11.344;2024-01-30T05:54:15;38.42;;;20.80;;
85330;SDS011;75738;44.496;11.344;2024-01-30T05:56:43;39.13;;;21.05;;
85330;SDS011;75738;44.496;11.344;2024-01-30T05:59:10;39.05;;;21.80;;
85330;SDS011;75738;44.496;11.344;2024-01-30T06:01:37;38.38;;;20.85;;
85330;SDS011;75738;44.496;11.344;2024-01-30T06:04:06;40.30;;;20.72;;
85330;SDS011;75738;44.496;11.344;2024-01-30T06:06:34;41.73;;;21.77;;
85330;SDS011;75738;44.496;11.344;2024-01-30T06:09:01;41.30;;;21.80;;
85330;SDS011;75738;44.496;11.344;2024-01-30T06:11:29;42.10;;;21.73;;
85330;SDS011;75738;44.496;11.344;2024-01-30T06:13:56;38.50;;;21.90;;
85330;SDS011;75738;44.496;11.344;2024-01-30T06:16:23;41.77;;;22.05;;
85330;SDS011;75738;44.496;11.344;2024-01-30T06:18:53;39.65;;;22.25;;
85330;SDS011;75738;44.496;11.344;2024-01-30T06:21:20;40.20;;;22.30;;
85330;SDS011;75738;44.496;11.344;2024-01-30T06:23:48;38.88;;;21.48;;
85330;SDS011;75738;44.496;11.344;2024-01-30T06:26:15;39.70;;;21.87;;
85330;SDS011;75738;44.496;11.344;2024-01-30T06:28:43;42.43;;;22.52;;
85330;SDS011;75738;44.496;11.344;2024-01-30T06:31:10;42.38;;;22.05;;
85330;SDS011;75738;44.496;11.344;2024-01-30T06:33:38;43.60;;;22.82;;
85330;SDS011;75738;44.496;11.344;2024-01-30T06:36:07;39.98;;;22.60;;
85330;SDS011;75738;44.496;11.344;2024-01-30T06:38:34;39.73;;;20.82;;
85330;SDS011;75738;44.496;11.344;2024-01-30T06:41:02;41.18;;;21.77;;
85330;SDS011;75738;44.496;11.344;2024-01-30T06:43:29;38.90;;;21.55;;
85330;SDS011;75738;44.496;11.344;2024-01-30T06:45:57;40.10;;;21.80;;
85330;SDS011;75738;44.496;11.344;2024-01-30T06:48:25;41.68;;;21.73;;
85330;SDS011;75738;44.496;11.344;2024-01-30T06:50:55;43.78;;;23.12;;
85330;SDS011;75738;44.496;11.344;2024-01-30T06:53:23;41.28;;;22.62;;
85330;SDS011;75738;44.496;11.344;2024-01-30T06:55:52;42.08;;;22.22;;
85330;SDS011;75738;44.496;11.344;2024-01-30T06:58:19;44.63;;;23.07;;
85330;SDS011;75738;44.496;11.344;2024-01-30T07:00:46;40.08;;;22.02;;
85330;SDS011;75738;44.496;11.344;2024-01-30T07:03:14;41.45;;;21.87;;
85330;SDS011;75738;44.496;11.344;2024-01-30T07:05:42;43.55;;;21.93;;
85330;SDS011;75738;44.496;11.344;2024-01-30T07:08:09;43.05;;;22.13;;
85330;SDS011;75738;44.496;11.344;2024-01-30T07:10:37;39.73;;;22.05;;
85330;SDS011;75738;44.496;11.344;2024-01-30T07:13:04;40.60;;;21.33;;
85330;SDS011;75738;44.496;11.344;2024-01-30T07:15:32;43.87;;;22.42;;
85330;SDS011;75738;44.496;11.344;2024-01-30T07:17:59;40.60;;;22.35;;
85330;SDS011;75738;44.496;11.344;2024-01-30T07:20:26;43.55;;;21.95;;
85330;SDS011;75738;44.496;11.344;2024-01-30T07:22:56;40.88;;;21.42;;
85330;SDS011;75738;44.496;11.344;2024-01-30T07:25:24;39.30;;;21.77;;
85330;SDS011;75738;44.496;11.344;2024-01-30T07:27:53;40.60;;;21.95;;
85330;SDS011;75738;44.496;11.344;2024-01-30T07:30:21;40.43;;;22.45;;
85330;SDS011;75738;44.496;11.344;2024-01-30T07:32:49;41.10;;;21.70;;
85330;SDS011;75738;44.496;11.344;2024-01-30T07:35:16;44.20;;;23.20;;
85330;SDS011;75738;44.496;11.344;2024-01-30T07:37:43;42.48;;;22.77;;
85330;SDS011;75738;44.496;11.344;2024-01-30T07:40:11;41.20;;;22.65;;
85330;SDS011;75738;44.496;11.344;2024-01-30T07:42:39;42.65;;;22.55;;
85330;SDS011;75738;44.496;11.344;2024-01-30T07:45:08;41.35;;;22.30;;
85330;SDS011;75738;44.496;11.344;2024-01-30T07:47:36;43.00;;;23.10;;
85330;SDS011;75738;44.496;11.344;2024-01-30T07:50:03;43.25;;;23.32;;
85330;SDS011;75738;44.496;11.344;2024-01-30T07:52:32;44.53;;;23.12;;
85330;SDS011;75738;44.496;11.344;2024-01-30T07:54:59;42.43;;;22.58;;
85330;SDS011;75738;44.496;11.344;2024-01-30T07:57:29;43.40;;;22.17;;
85330;SDS011;75738;44.496;11.344;2024-01-30T07:59:56;42.93;;;22.42;;
85330;SDS011;75738;44.496;11.344;2024-01-30T08:02:24;40.92;;;22.15;;
85330;SDS011;75738;44.496;11.344;2024-01-30T08:04:51;47.55;;;22.55;;
85330;SDS011;75738;44.496;11.344;2024-01-30T08:07:19;39.90;;;21.55;;
85330;SDS011;75738;44.496;11.344;2024-01-30T08:09:47;42.35;;;22.75;;
85330;SDS011;75738;44.496;11.344;2024-01-30T08:12:15;42.58;;;21.45;;
85330;SDS011;75738;44.496;11.344;2024-01-30T08:14:43;46.50;;;23.30;;
85330;SDS011;75738;44.496;11.344;2024-01-30T08:17:10;46.25;;;23.15;;
85330;SDS011;75738;44.496;11.344;2024-01-30T08:19:38;43.75;;;22.77;;
85330;SDS011;75738;44.496;11.344;2024-01-30T08:22:05;43.98;;;23.00;;
85330;SDS011;75738;44.496;11.344;2024-01-30T08:24:33;43.23;;;22.90;;
85330;SDS011;75738;44.496;11.344;2024-01-30T08:27:00;43.58;;;23.12;;
85330;SDS011;75738;44.496;11.344;2024-01-30T08:29:28;44.38;;;23.02;;
85330;SDS011;75738;44.496;11.344;2024-01-30T08:31:55;43.48;;;22.07;;
85330;SDS011;75738;44.496;11.344;2024-01-30T08:34:24;45.73;;;23.27;;
85330;SDS011;75738;44.496;11.344;2024-01-30T08:36:52;44.75;;;23.12;;
85330;SDS011;75738;44.496;11.344;2024-01-30T08:39:20;44.18;;;23.20;;
85330;SDS011;75738;44.496;11.344;2024-01-30T08:41:48;44.90;;;23.90;;
85330;SDS011;75738;44.496;11.344;2024-01-30T08:44:16;46.73;;;23.73;;
85330;SDS011;75738;44.496;11.344;2024-01-30T08:46:46;43.68;;;24.05;;
85330;SDS011;75738;44.496;11.344;2024-01-30T08:49:19;46.28;;;24.10;;
85330;SDS011;75738;44.496;11.344;2024-01-30T08:51:47;49.30;;;25.50;;
85330;SDS011;75738;44.496;11.344;2024-01-30T08:54:15;50.92;;;25.02;;
85330;SDS011;75738;44.496;11.344;2024-01-30T08:56:43;48.25;;;24.23;;
85330;SDS011;75738;44.496;11.344;2024-01-30T08:59:11;48.13;;;24.77;;
85330;SDS011;75738;44.496;11.344;2024-01-30T09:01:38;49.08;;;24.63;;
85330;SDS011;75738;44.496;11.344;2024-01-30T09:04:06;47.48;;;24.02;;
85330;SDS011;75738;44.496;11.344;2024-01-30T09:06:33;48.98;;;24.98;;
85330;SDS011;75738;44.496;11.344;2024-01-30T09:09:01;51.50;;;25.43;;
85330;SDS011;75738;44.496;11.344;2024-01-30T09:11:28;48.73;;;25.43;;
85330;SDS011;75738;44.496;11.344;2024-01-30T09:13:55;50.05;;;24.82;;
85330;SDS011;75738;44.496;11.344;2024-01-30T09:16:23;44.38;;;24.95;;
85330;SDS011;75738;44.496;11.344;2024-01-30T09:18:50;50.95;;;25.23;;
85330;SDS011;75738;44.496;11.344;2024-01-30T09:21:18;50.25;;;25.50;;
85330;SDS011;75738;44.496;11.344;2024-01-30T09:23:45;48.68;;;25.75;;
85330;SDS011;75738;44.496;11.344;2024-01-30T09:26:12;49.48;;;24.37;;
85330;SDS011;75738;44.496;11.344;2024-01-30T09:28:40;50.90;;;24.75;;
85330;SDS011;75738;44.496;11.344;2024-01-30T09:31:11;51.20;;;24.67;;
85330;SDS011;75738;44.496;11.344;2024-01-30T09:33:39;47.10;;;23.70;;
85330;SDS011;75738;44.496;11.344;2024-01-30T09:36:07;50.08;;;23.75;;
85330;SDS011;75738;44.496;11.344;2024-01-30T09:38:34;45.88;;;23.47;;
85330;SDS011;75738;44.496;11.344;2024-01-30T09:41:03;44.03;;;22.60;;
85330;SDS011;75738;44.496;11.344;2024-01-30T09:43:33;46.15;;;22.37;;
85330;SDS011;75738;44.496;11.344;2024-01-30T09:46:01;48.23;;;23.07;;
85330;SDS011;75738;44.496;11.344;2024-01-30T09:48:30;45.65;;;24.25;;
85330;SDS011;75738;44.496;11.344;2024-01-30T09:50:58;46.45;;;24.32;;
85330;SDS011;75738;44.496;11.344;2024-01-30T09:53:26;48.78;;;23.92;;
85330;SDS011;75738;44.496;11.344;2024-01-30T09:55:54;46.45;;;24.30;;
85330;SDS011;75738;44.496;11.344;2024-01-30T09:58:21;50.63;;;25.35;;
85330;SDS011;75738;44.496;11.344;2024-01-30T10:00:48;54.60;;;27.22;;
85330;SDS011;75738;44.496;11.344;2024-01-30T10:03:16;49.13;;;26.17;;
85330;SDS011;75738;44.496;11.344;2024-01-30T10:05:48;50.25;;;26.50;;
85330;SDS011;75738;44.496;11.344;2024-01-30T10:10:47;52.88;;;27.20;;
85330;SDS011;75738;44.496;11.344;2024-01-30T10:13:18;50.52;;;25.35;;
85330;SDS011;75738;44.496;11.344;2024-01-30T10:15:47;52.40;;;26.57;;
85330;SDS011;75738;44.496;11.344;2024-01-30T10:18:14;56.37;;;26.90;;
85330;SDS011;75738;44.496;11.344;2024-01-30T10:20:42;53.48;;;28.27;;
85330;SDS011;75738;44.496;11.344;2024-01-30T10:23:09;50.33;;;27.10;;
85330;SDS011;75738;44.496;11.344;2024-01-30T10:25:38;50.83;;;26.52;;
85330;SDS011;75738;44.496;11.344;2024-01-30T10:28:05;54.13;;;27.85;;
85330;SDS011;75738;44.496;11.344;2024-01-30T10:30:33;51.98;;;28.60;;
85330;SDS011;75738;44.496;11.344;2024-01-30T10:33:00;55.50;;;27.00;;
85330;SDS011;75738;44.496;11.344;2024-01-30T10:35:28;51.45;;;28.15;;
85330;SDS011;75738;44.496;11.344;2024-01-30T10:37:56;52.30;;;27.37;;
85330;SDS011;75738;44.496;11.344;2024-01-30T10:40:25;49.53;;;26.25;;
85330;SDS011;75738;44.496;11.344;2024-01-30T10:42:54;52.38;;;26.07;;
85330;SDS011;75738;44.496;11.344;2024-01-30T10:45:22;49.30;;;24.55;;
85330;SDS011;75738;44.496;11.344;2024-01-30T10:47:54;46.23;;;24.55;;
85330;SDS011;75738;44.496;11.344;2024-01-30T10:50:29;44.55;;;23.20;;
85330;SDS011;75738;44.496;11.344;2024-01-30T10:52:54;51.02;;;26.48;;
85330;SDS011;75738;44.496;11.344;2024-01-30T10:55:22;50.30;;;27.48;;
85330;SDS011;75738;44.496;11.344;2024-01-30T10:57:49;49.75;;;26.37;;
85330;SDS011;75738;44.496;11.344;2024-01-30T11:00:18;49.45;;;26.62;;
85330;SDS011;75738;44.496;11.344;2024-01-30T11:02:48;51.70;;;26.87;;
85330;SDS011;75738;44.496;11.344;2024-01-30T11:05:22;55.65;;;27.50;;
85330;SDS011;75738;44.496;11.344;2024-01-30T11:10:19;53.02;;;27.40;;
85330;SDS011;75738;44.496;11.344;2024-01-30T11:12:46;49.58;;;27.05;;
85330;SDS011;75738;44.496;11.344;2024-01-30T11:15:16;47.93;;;26.55;;
85330;SDS011;75738;44.496;11.344;2024-01-30T11:17:50;47.48;;;27.52;;
85330;SDS011;75738;44.496;11.344;2024-01-30T11:20:22;47.62;;;27.02;;
85330;SDS011;75738;44.496;11.344;2024-01-30T11:22:55;48.38;;;28.20;;
85330;SDS011;75738;44.496;11.344;2024-01-30T11:25:24;47.98;;;27.50;;
85330;SDS011;75738;44.496;11.344;2024-01-30T11:27:53;48.02;;;27.22;;
85330;SDS011;75738;44.496;11.344;2024-01-30T11:30:24;47.33;;;26.73;;
85330;SDS011;75738;44.496;11.344;2024-01-30T11:33:02;45.15;;;27.22;;
85330;SDS011;75738;44.496;11.344;2024-01-30T11:35:38;44.90;;;25.52;;
85330;SDS011;75738;44.496;11.344;2024-01-30T11:38:10;43.13;;;25.17;;
85330;SDS011;75738;44.496;11.344;2024-01-30T11:40:39;44.75;;;25.32;;
85330;SDS011;75738;44.496;11.344;2024-01-30T11:43:07;42.78;;;24.05;;
85330;SDS011;75738;44.496;11.344;2024-01-30T11:45:35;40.98;;;24.43;;
85330;SDS011;75738;44.496;11.344;2024-01-30T11:48:04;42.55;;;24.70;;
85330;SDS011;75738;44.496;11.344;2024-01-30T11:50:34;44.03;;;24.27;;
85330;SDS011;75738;44.496;11.344;2024-01-30T11:53:03;41.15;;;24.45;;
85330;SDS011;75738;44.496;11.344;2024-01-30T11:55:32;44.70;;;25.45;;
85330;SDS011;75738;44.496;11.344;2024-01-30T11:58:01;44.53;;;24.92;;
85330;SDS011;75738;44.496;11.344;2024-01-30T12:00:31;45.88;;;26.15;;
85330;SDS011;75738;44.496;11.344;2024-01-30T12:02:59;47.13;;;25.30;;
85330;SDS011;75738;44.496;11.344;2024-01-30T12:05:27;41.48;;;25.50;;
85330;SDS011;75738;44.496;11.344;2024-01-30T12:07:55;41.83;;;24.10;;
85330;SDS011;75738;44.496;11.344;2024-01-30T12:10:25;44.67;;;24.85;;
85330;SDS011;75738;44.496;11.344;2024-01-30T12:12:53;45.35;;;25.85;;
85330;SDS011;75738;44.496;11.344;2024-01-30T12:15:21;45.48;;;25.92;;
85330;SDS011;75738;44.496;11.344;2024-01-30T12:17:49;41.68;;;24.80;;
85330;SDS011;75738;44.496;11.344;2024-01-30T12:20:20;45.17;;;26.15;;
85330;SDS011;75738;44.496;11.344;2024-01-30T12:22:47;42.20;;;24.98;;
85330;SDS011;75738;44.496;11.344;2024-01-30T12:25:17;43.63;;;24.95;;
85330;SDS011;75738;44.496;11.344;2024-01-30T12:27:47;41.30;;;25.00;;
85330;SDS011;75738;44.496;11.344;2024-01-30T12:30:18;41.35;;;25.20;;
85330;SDS011;75738;44.496;11.344;2024-01-30T12:32:47;42.95;;;24.50;;
85330;SDS011;75738;44.496;11.344;2024-01-30T12:35:17;41.28;;;24.67;;
85330;SDS011;75738;44.496;11.344;2024-01-30T12:37:46;41.10;;;24.15;;
85330;SDS011;75738;44.496;11.344;2024-01-30T12:40:14;42.58;;;24.80;;
85330;SDS011;75738;44.496;11.344;2024-01-30T12:42:42;41.92;;;24.80;;
85330;SDS011;75738;44.496;11.344;2024-01-30T12:45:13;41.88;;;25.08;;
85330;SDS011;75738;44.496;11.344;2024-01-30T12:47:41;40.17;;;24.23;;
85330;SDS011;75738;44.496;11.344;2024-01-30T12:50:08;39.88;;;24.02;;
85330;SDS011;75738;44.496;11.344;2024-01-30T12:52:38;39.13;;;23.75;;
85330;SDS011;75738;44.496;11.344;2024-01-30T12:55:05;41.08;;;24.77;;
85330;SDS011;75738;44.496;11.344;2024-01-30T12:57:32;40.63;;;24.40;;
85330;SDS011;75738;44.496;11.344;2024-01-30T13:00:00;41.23;;;23.32;;
85330;SDS011;75738;44.496;11.344;2024-01-30T13:02:28;40.67;;;23.87;;
85330;SDS011;75738;44.496;11.344;2024-01-30T13:04:57;42.80;;;24.70;;
85330;SDS011;75738;44.496;11.344;2024-01-30T13:07:24;38.60;;;23.83;;
85330;SDS011;75738;44.496;11.344;2024-01-30T13:09:52;43.02;;;25.23;;
85330;SDS011;75738;44.496;11.344;2024-01-30T13:12:19;42.03;;;24.30;;
85330;SDS011;75738;44.496;11.344;2024-01-30T13:14:47;41.73;;;25.05;;
85330;SDS011;75738;44.496;11.344;2024-01-30T13:17:14;45.12;;;25.65;;
85330;SDS011;75738;44.496;11.344;2024-01-30T13:19:42;43.52;;;25.95;;
85330;SDS011;75738;44.496;11.344;2024-01-30T13:22:09;41.90;;;26.07;;
85330;SDS011;75738;44.496;11.344;2024-01-30T13:24:37;44.50;;;26.52;;
85330;SDS011;75738;44.496;11.344;2024-01-30T13:27:04;45.05;;;26.70;;
85330;SDS011;75738;44.496;11.344;2024-01-30T13:29:32;45.20;;;26.48;;
85330;SDS011;75738;44.496;11.344;2024-01-30T13:32:00;45.10;;;26.23;;
85330;SDS011;75738;44.496;11.344;2024-01-30T13:34:27;46.40;;;26.68;;
85330;SDS011;75738;44.496;11.344;2024-01-30T13:36:54;45.63;;;27.05;;
85330;SDS011;75738;44.496;11.344;2024-01-30T13:39:22;44.48;;;27.00;;
85330;SDS011;75738;44.496;11.344;2024-01-30T13:41:50;44.33;;;26.97;;
85330;SDS011;75738;44.496;11.344;2024-01-30T13:44:17;44.13;;;26.70;;
85330;SDS011;75738;44.496;11.344;2024-01-30T13:46:46;43.83;;;25.55;;
85330;SDS011;75738;44.496;11.344;2024-01-30T13:49:13;46.20;;;25.85;;
85330;SDS011;75738;44.496;11.344;2024-01-30T13:51:41;43.63;;;26.12;;
85330;SDS011;75738;44.496;11.344;2024-01-30T13:54:08;47.83;;;26.15;;
85330;SDS011;75738;44.496;11.344;2024-01-30T13:56:36;44.45;;;26.37;;
85330;SDS011;75738;44.496;11.344;2024-01-30T13:59:03;45.20;;;25.70;;
85330;SDS011;75738;44.496;11.344;2024-01-30T14:01:31;44.55;;;26.62;;
85330;SDS011;75738;44.496;11.344;2024-01-30T14:03:59;45.73;;;26.00;;
85330;SDS011;75738;44.496;11.344;2024-01-30T14:06:27;45.78;;;26.62;;
85330;SDS011;75738;44.496;11.344;2024-01-30T14:08:55;44.13;;;25.10;;
85330;SDS011;75738;44.496;11.344;2024-01-30T14:11:23;46.85;;;25.50;;
85330;SDS011;75738;44.496;11.344;2024-01-30T14:13:51;47.08;;;26.30;;
85330;SDS011;75738;44.496;11.344;2024-01-30T14:16:18;44.65;;;25.52;;
85330;SDS011;75738;44.496;11.344;2024-01-30T14:18:46;45.90;;;24.45;;